Time;durP1;ratioP1;P1;durP2;ratioP2;P2;SDS_P1;SDS_P2;PMS_P1;PMS_P2;Temp;Humidity;BMP_temperature;BMP_pressure;BME280_temperature;BME280_humidity;BME280_pressure;Samples;Min_cycle;Max_cycle;Signal;HPM_P1;HPM_P2
2022/08/01 04:16:46;;;;;;;;;20.00;19.25;;;;;;;;6487886;31;16014;-60
2022/08/01 04:22:49;;;;;;;;;16.00;16.00;;;;;;;;6489944;39;8873;-60
2022/08/01 04:28:54;;;;;;;;;17.67;15.00;;;;;;;;6490834;39;8951;-60
2022/08/01 04:34:59;;;;;;;;;17.00;17.00;;;;;;;;6487110;39;8917;-61
2022/08/01 04:41:03;;;;;;;;;16.25;16.00;;;;;;;;6490446;31;8968;-60
2022/08/01 04:47:11;;;;;;;;;14.00;13.50;;;;;;;;6490412;39;8833;-60
2022/08/01 04:53:21;;;;;;;;;15.50;14.50;;;;;;;;6490025;39;9570;-61
2022/08/01 04:59:41;;;;;;;;;16.50;14.00;;;;;;;;6489779;47;8883;-59
2022/08/01 05:05:44;;;;;;;;;15.25;13.50;;;;;;;;6491202;46;8919;-60
2022/08/01 05:11:46;;;;;;;;;18.00;17.00;;;;;;;;6492453;31;8972;-60
2022/08/01 05:17:49;;;;;;;;;16.00;16.00;;;;;;;;6492288;39;8909;-60
2022/08/01 05:23:51;;;;;;;;;20.25;18.50;;;;;;;;6492609;39;8862;-60
2022/08/01 05:29:55;;;;;;;;;21.50;21.25;;;;;;;;6491878;46;8877;-60
2022/08/01 05:35:57;;;;;;;;;22.00;19.50;;;;;;;;6491434;39;8905;-61
2022/08/01 05:41:59;;;;;;;;;25.00;22.25;;;;;;;;6492028;31;8883;-61
2022/08/01 05:48:02;;;;;;;;;26.50;24.00;;;;;;;;6491224;39;8887;-60
2022/08/01 05:54:04;;;;;;;;;23.25;22.00;;;;;;;;6490867;31;8855;-61
2022/08/01 06:00:07;;;;;;;;;25.25;25.25;;;;;;;;6492077;39;9573;-59
2022/08/01 06:06:13;;;;;;;;;27.50;25.75;;;;;;;;6491137;39;8969;-60
2022/08/01 06:12:17;;;;;;;;;27.00;25.00;;;;;;;;6491301;31;9045;-59
2022/08/01 06:18:20;;;;;;;;;24.25;23.00;;;;;;;;6490283;39;9005;-60
2022/08/01 06:24:23;;;;;;;;;26.50;25.50;;;;;;;;6490679;31;8886;-61
2022/08/01 06:30:26;;;;;;;;;9.00;8.50;;;;;;;;6490592;39;8925;-60
2022/08/01 06:36:30;;;;;;;;;11.75;11.50;;;;;;;;6490630;39;8939;-60
2022/08/01 06:42:35;;;;;;;;;12.00;11.25;;;;;;;;6488236;39;8862;-60
2022/08/01 06:48:40;;;;;;;;;10.00;10.00;;;;;;;;6490659;39;9469;-59
2022/08/01 06:54:42;;;;;;;;;7.00;7.00;;;;;;;;6490937;39;8865;-59
2022/08/01 07:00:44;;;;;;;;;10.50;9.00;;;;;;;;6490113;46;8894;-59
2022/08/01 07:06:46;;;;;;;;;9.75;9.75;;;;;;;;6490376;39;8901;-60
2022/08/01 07:12:48;;;;;;;;;8.00;7.25;;;;;;;;6487927;39;9617;-61
2022/08/01 07:18:50;;;;;;;;;4.50;3.50;;;;;;;;6488006;39;8950;-59
2022/08/01 07:24:54;;;;;;;;;8.75;7.75;;;;;;;;6489171;39;8915;-59
2022/08/01 07:30:56;;;;;;;;;6.00;6.00;;;;;;;;6490449;39;8871;-59
2022/08/01 07:37:01;;;;;;;;;4.75;4.75;;;;;;;;6489961;46;8919;-58
2022/08/01 07:43:03;;;;;;;;;7.00;7.00;;;;;;;;6488063;39;8897;-60
2022/08/01 07:49:07;;;;;;;;;8.00;8.00;;;;;;;;6489923;39;8904;-59
2022/08/01 07:55:11;;;;;;;;;8.00;8.00;;;;;;;;6488479;39;8926;-58
2022/08/01 08:01:19;;;;;;;;;8.33;7.00;;;;;;;;6415162;31;5002152;-60
2022/08/01 08:07:21;;;;;;;;;6.50;6.50;;;;;;;;6528002;36;9005;-60
2022/08/01 08:13:26;;;;;;;;;10.00;10.00;;;;;;;;6490075;31;9006;-59
2022/08/01 08:19:28;;;;;;;;;5.75;5.50;;;;;;;;6489706;39;8936;-60
2022/08/01 08:25:39;;;;;;;;;6.25;6.25;;;;;;;;6488734;39;8952;-59
2022/08/01 08:31:42;;;;;;;;;7.00;7.00;;;;;;;;6490086;31;8929;-60
2022/08/01 08:37:53;;;;;;;;;11.25;9.00;;;;;;;;6490322;39;9659;-60
2022/08/01 08:44:03;;;;;;;;;7.00;7.00;;;;;;;;6490955;31;8889;-60
2022/08/01 08:50:07;;;;;;;;;9.50;9.50;;;;;;;;6489730;31;8977;-60
2022/08/01 08:56:12;;;;;;;;;8.00;7.00;;;;;;;;6488674;46;8965;-60
2022/08/01 09:02:15;;;;;;;;;7.25;7.00;;;;;;;;6490532;39;8917;-59
2022/08/01 09:08:17;;;;;;;;;6.00;6.00;;;;;;;;6487922;39;9738;-59
2022/08/01 09:14:32;;;;;;;;;5.00;5.00;;;;;;;;6489195;39;8932;-60
2022/08/01 09:20:35;;;;;;;;;7.50;7.50;;;;;;;;6488630;46;9047;-59
2022/08/01 09:26:38;;;;;;;;;7.75;7.50;;;;;;;;6489574;31;8927;-59
2022/08/01 09:33:00;;;;;;;;;7.00;6.50;;;;;;;;6488474;39;8987;-59
2022/08/01 09:39:13;;;;;;;;;6.00;6.00;;;;;;;;6489164;39;8929;-58
2022/08/01 09:45:32;;;;;;;;;5.75;5.75;;;;;;;;6491353;31;8991;-59
2022/08/01 09:51:43;;;;;;;;;7.25;7.25;;;;;;;;6490686;39;8952;-59
2022/08/01 09:58:04;;;;;;;;;5.50;5.50;;;;;;;;6489742;46;9074;-59
2022/08/01 10:04:10;;;;;;;;;7.25;7.25;;;;;;;;6489227;39;8930;-60
2022/08/01 10:10:15;;;;;;;;;8.25;8.25;;;;;;;;6487737;39;8887;-59
2022/08/01 10:16:21;;;;;;;;;7.00;7.00;;;;;;;;6489924;39;8936;-59
2022/08/01 10:22:27;;;;;;;;;7.50;7.25;;;;;;;;6488651;39;8983;-58
2022/08/01 10:28:31;;;;;;;;;7.75;7.25;;;;;;;;6490964;31;9071;-60
2022/08/01 10:34:34;;;;;;;;;9.00;9.00;;;;;;;;6489378;31;9034;-60
2022/08/01 10:40:40;;;;;;;;;6.00;6.00;;;;;;;;6490419;39;9003;-60
2022/08/01 10:46:46;;;;;;;;;6.75;6.75;;;;;;;;6488245;46;8913;-60
2022/08/01 10:53:13;;;;;;;;;8.50;8.50;;;;;;;;6485307;31;8957;-59
2022/08/01 10:59:27;;;;;;;;;7.75;7.75;;;;;;;;6487796;39;9075;-61
2022/08/01 11:05:51;;;;;;;;;7.50;7.50;;;;;;;;6486536;46;8931;-58
2022/08/01 11:12:26;;;;;;;;;7.25;7.25;;;;;;;;6489101;31;8987;-59
2022/08/01 11:18:32;;;;;;;;;7.50;7.50;;;;;;;;6488244;31;8949;-60
2022/08/01 11:24:47;;;;;;;;;8.75;8.75;;;;;;;;6490750;31;8931;-61
2022/08/01 11:31:15;;;;;;;;;10.00;8.75;;;;;;;;6488253;31;9006;-59
2022/08/01 11:37:26;;;;;;;;;9.50;9.50;;;;;;;;6489428;31;8895;-60
2022/08/01 11:43:32;;;;;;;;;17.75;14.50;;;;;;;;6489653;39;9356;-60
2022/08/01 11:49:50;;;;;;;;;7.50;7.50;;;;;;;;6489194;46;8884;-59
2022/08/01 11:55:55;;;;;;;;;8.00;8.00;;;;;;;;6487896;31;8963;-61
2022/08/01 12:01:58;;;;;;;;;8.00;8.00;;;;;;;;6478766;39;8941;-59
2022/08/01 12:08:01;;;;;;;;;7.50;7.50;;;;;;;;6490306;31;9710;-58
2022/08/01 12:14:06;;;;;;;;;8.50;7.00;;;;;;;;6489594;31;8995;-59
2022/08/01 12:20:11;;;;;;;;;6.75;6.75;;;;;;;;6488051;39;8929;-60
2022/08/01 12:26:13;;;;;;;;;7.50;7.50;;;;;;;;6487903;31;9053;-58
2022/08/01 12:32:36;;;;;;;;;8.50;8.50;;;;;;;;6487235;39;8913;-59
2022/08/01 12:38:39;;;;;;;;;5.00;4.25;;;;;;;;6490681;31;9005;-59
2022/08/01 12:44:44;;;;;;;;;8.75;8.00;;;;;;;;6488309;31;9028;-60
2022/08/01 12:50:52;;;;;;;;;39.00;34.75;;;;;;;;6490377;47;9002;-59
2022/08/01 12:56:55;;;;;;;;;10.00;7.75;;;;;;;;6489567;39;8968;-60
2022/08/01 13:03:08;;;;;;;;;7.00;7.00;;;;;;;;6489454;39;9024;-59
2022/08/01 13:09:11;;;;;;;;;4.25;4.25;;;;;;;;6489282;39;8960;-59
2022/08/01 13:15:20;;;;;;;;;7.00;7.00;;;;;;;;6488097;31;8982;-58
2022/08/01 13:21:27;;;;;;;;;5.50;5.50;;;;;;;;6489177;39;8917;-59
2022/08/01 13:27:29;;;;;;;;;6.50;6.50;;;;;;;;6491402;39;8915;-58
2022/08/01 13:33:59;;;;;;;;;7.00;6.00;;;;;;;;6490496;39;9767;-58
2022/08/01 13:40:01;;;;;;;;;6.00;5.25;;;;;;;;6491347;31;9043;-58
2022/08/01 13:46:05;;;;;;;;;6.00;4.25;;;;;;;;6490777;46;8871;-59
2022/08/01 13:52:10;;;;;;;;;3.75;2.75;;;;;;;;6492242;31;8849;-60
2022/08/01 13:58:12;;;;;;;;;5.00;4.00;;;;;;;;6487739;31;8986;-59
2022/08/01 14:04:15;;;;;;;;;2.25;2.25;;;;;;;;6489317;39;9083;-59
2022/08/01 14:10:17;;;;;;;;;4.25;4.25;;;;;;;;6490378;31;8973;-60
2022/08/01 14:16:22;;;;;;;;;2.25;2.25;;;;;;;;6486367;46;9111;-60
2022/08/01 14:22:26;;;;;;;;;3.00;3.00;;;;;;;;6489202;39;8959;-61
2022/08/01 14:28:30;;;;;;;;;1.50;1.50;;;;;;;;6488001;46;8897;-61
2022/08/01 14:34:33;;;;;;;;;2.00;2.00;;;;;;;;6489372;46;8881;-59
2022/08/01 14:40:35;;;;;;;;;3.00;3.00;;;;;;;;6489591;31;9040;-60
2022/08/01 14:46:39;;;;;;;;;3.00;3.00;;;;;;;;6489253;39;8893;-59
2022/08/01 14:53:00;;;;;;;;;5.25;5.00;;;;;;;;6489743;39;9026;-60
2022/08/01 14:59:02;;;;;;;;;6.25;6.25;;;;;;;;6488999;39;8909;-61
2022/08/01 15:05:23;;;;;;;;;5.50;5.50;;;;;;;;6489594;31;9030;-60
2022/08/01 15:11:25;;;;;;;;;5.75;5.00;;;;;;;;6489289;31;8925;-59
2022/08/01 15:17:35;;;;;;;;;4.25;4.00;;;;;;;;6489605;39;8907;-62
2022/08/01 15:23:39;;;;;;;;;4.50;3.25;;;;;;;;6488940;39;8924;-59
2022/08/01 15:29:42;;;;;;;;;4.00;4.00;;;;;;;;6489448;31;9039;-60
2022/08/01 15:35:44;;;;;;;;;5.75;5.50;;;;;;;;6488557;39;8943;-60
2022/08/01 15:41:47;;;;;;;;;7.75;6.50;;;;;;;;6488572;39;8951;-60
2022/08/01 15:47:49;;;;;;;;;7.75;6.75;;;;;;;;6488840;46;8903;-60
2022/08/01 15:53:51;;;;;;;;;4.25;4.25;;;;;;;;6488287;39;9033;-59
2022/08/01 15:59:53;;;;;;;;;6.25;4.50;;;;;;;;6489210;39;9082;-60
2022/08/01 16:05:55;;;;;;;;;5.50;5.50;;;;;;;;6488754;31;8927;-59
2022/08/01 16:11:57;;;;;;;;;4.00;4.00;;;;;;;;6487352;47;8972;-59
2022/08/01 16:18:00;;;;;;;;;5.75;5.75;;;;;;;;6489580;36;8937;-59
2022/08/01 16:24:03;;;;;;;;;3.00;3.00;;;;;;;;6488711;39;9024;-59
2022/08/01 16:30:06;;;;;;;;;5.00;4.75;;;;;;;;6488499;47;8886;-60
2022/08/01 16:36:09;;;;;;;;;5.25;3.00;;;;;;;;6489508;31;8892;-60
2022/08/01 16:42:18;;;;;;;;;6.00;4.25;;;;;;;;6487592;39;9022;-61
2022/08/01 16:48:28;;;;;;;;;6.25;6.25;;;;;;;;6488793;39;9569;-60
2022/08/01 16:54:31;;;;;;;;;2.75;2.75;;;;;;;;6488082;46;8889;-60
2022/08/01 17:00:34;;;;;;;;;5.50;5.25;;;;;;;;6490038;39;8871;-59
2022/08/01 17:06:37;;;;;;;;;4.25;4.25;;;;;;;;6490378;39;8881;-59
2022/08/01 17:12:41;;;;;;;;;3.50;3.50;;;;;;;;6490332;31;8950;-60
2022/08/01 17:18:43;;;;;;;;;7.00;5.00;;;;;;;;6490795;39;8951;-60
2022/08/01 17:24:46;;;;;;;;;5.00;4.75;;;;;;;;6490248;39;8875;-59
2022/08/01 17:30:48;;;;;;;;;5.33;5.00;;;;;;;;6490134;31;8932;-59
2022/08/01 17:36:51;;;;;;;;;7.00;7.00;;;;;;;;6489753;39;8896;-60
2022/08/01 17:42:54;;;;;;;;;6.75;6.75;;;;;;;;6489850;31;9559;-60
2022/08/01 17:48:57;;;;;;;;;6.75;6.00;;;;;;;;6490778;39;8966;-60
2022/08/01 17:55:01;;;;;;;;;5.00;5.00;;;;;;;;6489423;46;8881;-60
2022/08/01 18:01:04;;;;;;;;;8.25;7.00;;;;;;;;6489967;39;8903;-58
2022/08/01 18:07:07;;;;;;;;;8.50;7.50;;;;;;;;6489437;46;8865;-59
2022/08/01 18:13:11;;;;;;;;;6.00;6.00;;;;;;;;6489738;39;8954;-60
2022/08/01 18:19:14;;;;;;;;;4.25;3.25;;;;;;;;6490642;39;8870;-60
2022/08/01 18:25:16;;;;;;;;;9.25;8.00;;;;;;;;6488937;46;8902;-59
2022/08/01 18:31:20;;;;;;;;;7.25;7.25;;;;;;;;6489321;39;8990;-60
2022/08/01 18:37:23;;;;;;;;;7.00;7.00;;;;;;;;6490125;39;8878;-60
2022/08/01 18:43:31;;;;;;;;;8.50;8.50;;;;;;;;6490135;31;8857;-61
2022/08/01 18:49:33;;;;;;;;;8.25;7.50;;;;;;;;6490315;39;8858;-60
2022/08/01 18:55:36;;;;;;;;;10.00;8.50;;;;;;;;6488996;46;8947;-60
2022/08/01 19:01:38;;;;;;;;;7.00;6.00;;;;;;;;6488997;39;8887;-60
2022/08/01 19:07:40;;;;;;;;;7.25;7.25;;;;;;;;6489736;31;8877;-59
2022/08/01 19:14:05;;;;;;;;;7.00;7.00;;;;;;;;6488868;46;9030;-60
2022/08/01 19:20:09;;;;;;;;;10.50;10.50;;;;;;;;6487811;46;8959;-59
2022/08/01 19:26:14;;;;;;;;;10.00;8.75;;;;;;;;6489786;39;8890;-60
2022/08/01 19:32:18;;;;;;;;;6.25;6.25;;;;;;;;6489229;46;8933;-60
2022/08/01 19:38:20;;;;;;;;;8.75;8.75;;;;;;;;6489265;31;8985;-60
2022/08/01 19:44:25;;;;;;;;;12.25;12.25;;;;;;;;6488697;46;9040;-61
2022/08/01 19:50:28;;;;;;;;;10.75;10.75;;;;;;;;6489434;39;8891;-60
2022/08/01 19:56:38;;;;;;;;;10.50;10.50;;;;;;;;6488058;31;8936;-60
2022/08/01 20:02:44;;;;;;;;;9.00;9.00;;;;;;;;6489382;39;9631;-58
2022/08/01 20:08:49;;;;;;;;;7.50;7.00;;;;;;;;6488404;46;8961;-59
2022/08/01 20:14:54;;;;;;;;;10.00;10.00;;;;;;;;6489027;46;8941;-59
2022/08/01 20:20:57;;;;;;;;;9.50;9.00;;;;;;;;6488921;31;8963;-59
2022/08/01 20:26:59;;;;;;;;;6.25;6.25;;;;;;;;6488931;31;8890;-60
2022/08/01 20:33:03;;;;;;;;;8.00;7.00;;;;;;;;6490183;39;8873;-60
2022/08/01 20:39:06;;;;;;;;;9.25;8.50;;;;;;;;6490461;46;8878;-60
2022/08/01 20:45:17;;;;;;;;;6.50;6.50;;;;;;;;6490519;39;8956;-59
2022/08/01 20:51:22;;;;;;;;;12.50;10.25;;;;;;;;6490776;31;8914;-59
2022/08/01 20:57:27;;;;;;;;;10.75;9.75;;;;;;;;6490775;31;9026;-59
2022/08/01 21:04:04;;;;;;;;;13.00;11.50;;;;;;;;6490024;39;9029;-60
2022/08/01 21:10:15;;;;;;;;;9.75;9.50;;;;;;;;6489957;31;8949;-61
2022/08/01 21:16:27;;;;;;;;;9.50;9.00;;;;;;;;6490247;39;8970;-60
2022/08/01 21:22:58;;;;;;;;;12.00;11.75;;;;;;;;6490893;39;9524;-60
2022/08/01 21:29:06;;;;;;;;;9.25;9.25;;;;;;;;6490606;39;8850;-60
2022/08/01 21:35:08;;;;;;;;;11.50;10.25;;;;;;;;6489737;46;8849;-59
2022/08/01 21:41:17;;;;;;;;;15.25;13.25;;;;;;;;6489354;39;8950;-59
2022/08/01 21:47:41;;;;;;;;;14.50;14.50;;;;;;;;6490840;46;8915;-58
2022/08/01 21:53:46;;;;;;;;;9.50;9.50;;;;;;;;6490272;39;8914;-60
2022/08/01 22:00:02;;;;;;;;;12.33;11.00;;;;;;;;6490320;39;8945;-61
2022/08/01 22:06:07;;;;;;;;;12.00;11.75;;;;;;;;6489683;39;8830;-60
2022/08/01 22:12:10;;;;;;;;;13.25;13.25;;;;;;;;6489251;39;8960;-59
2022/08/01 22:18:19;;;;;;;;;10.75;10.25;;;;;;;;6489140;46;9039;-60
2022/08/01 22:24:21;;;;;;;;;12.25;12.25;;;;;;;;6489992;39;8928;-59
2022/08/01 22:30:26;;;;;;;;;14.50;12.50;;;;;;;;6490118;31;8914;-59
2022/08/01 22:36:30;;;;;;;;;11.25;11.25;;;;;;;;6489291;46;8956;-60
2022/08/01 22:42:46;;;;;;;;;9.50;8.25;;;;;;;;6489621;39;8927;-60
2022/08/01 22:49:15;;;;;;;;;8.00;8.00;;;;;;;;6489815;31;9004;-59
2022/08/01 22:55:19;;;;;;;;;9.25;9.25;;;;;;;;6489389;39;8854;-60
2022/08/01 23:01:27;;;;;;;;;10.75;10.75;;;;;;;;6489691;39;8936;-59
2022/08/01 23:07:49;;;;;;;;;11.50;8.00;;;;;;;;6489418;31;9073;-59
2022/08/01 23:13:51;;;;;;;;;4.50;4.00;;;;;;;;6490267;31;8980;-60
2022/08/01 23:20:05;;;;;;;;;10.25;10.25;;;;;;;;6489449;39;9033;-59
2022/08/01 23:26:09;;;;;;;;;7.00;7.00;;;;;;;;6489621;39;8861;-60
2022/08/01 23:32:15;;;;;;;;;12.25;9.00;;;;;;;;6489386;39;8831;-60
2022/08/01 23:38:19;;;;;;;;;4.25;4.25;;;;;;;;6490125;31;9028;-60
2022/08/01 23:44:21;;;;;;;;;9.75;9.50;;;;;;;;6489116;31;9018;-60
2022/08/01 23:50:23;;;;;;;;;12.25;10.75;;;;;;;;6489823;31;8936;-59
2022/08/01 23:56:29;;;;;;;;;10.00;9.50;;;;;;;;6489018;39;9639;-60
